Time;durP1;ratioP1;P1;durP2;ratioP2;P2;SDS_P1;SDS_P2;PMS_P1;PMS_P2;Temp;Humidity;BMP_temperature;BMP_pressure;BME280_temperature;BME280_humidity;BME280_pressure;Samples;Min_cycle;Max_cycle;Signal;HPM_P1;HPM_P2
2021/06/30 00:01:38;;;;;;;0.47;0.32;;;18.50;73.20;;;;;;5129072;27;20046;-83
2021/06/30 00:04:04;;;;;;;0.60;0.40;;;18.60;73.00;;;;;;5125415;27;20057;-83
2021/06/30 00:06:30;;;;;;;0.55;0.45;;;18.60;73.30;;;;;;5118919;28;20047;-84
2021/06/30 00:08:56;;;;;;;0.70;0.60;;;18.60;73.00;;;;;;5118757;28;20393;-83
2021/06/30 00:11:23;;;;;;;0.50;0.40;;;18.60;73.40;;;;;;5118359;27;20032;-83
2021/06/30 00:13:48;;;;;;;0.40;0.30;;;18.60;73.10;;;;;;5118794;28;20031;-84
2021/06/30 00:16:16;;;;;;;0.47;0.40;;;18.60;73.60;;;;;;5132833;27;20107;-84
2021/06/30 00:18:42;;;;;;;0.40;0.32;;;18.60;73.50;;;;;;5118799;28;20104;-83
2021/06/30 00:21:08;;;;;;;0.60;0.50;;;18.50;73.80;;;;;;5118423;28;20023;-83
2021/06/30 00:23:34;;;;;;;0.50;0.40;;;18.60;73.80;;;;;;5118583;28;20442;-83
2021/06/30 00:25:59;;;;;;;0.60;0.50;;;18.60;73.60;;;;;;5118273;28;20050;-84
2021/06/30 00:28:25;;;;;;;0.50;0.40;;;18.60;73.60;;;;;;5118247;28;20032;-83
2021/06/30 00:30:51;;;;;;;0.60;0.45;;;18.60;73.60;;;;;;5118356;28;20444;-83
2021/06/30 00:33:18;;;;;;;0.57;0.50;;;18.60;73.50;;;;;;5118390;27;20016;-84
2021/06/30 00:35:44;;;;;;;0.70;0.50;;;18.60;74.20;;;;;;5118462;28;20488;-83
2021/06/30 00:38:09;;;;;;;0.60;0.50;;;18.50;74.30;;;;;;5118304;28;20027;-83
2021/06/30 00:40:35;;;;;;;0.50;0.40;;;18.50;74.30;;;;;;5118009;27;20034;-83
2021/06/30 00:43:01;;;;;;;0.70;0.50;;;18.50;74.50;;;;;;5117858;28;20534;-84
2021/06/30 00:45:27;;;;;;;0.70;0.60;;;18.50;74.40;;;;;;5118150;28;20035;-83
2021/06/30 00:47:52;;;;;;;0.68;0.50;;;18.60;74.60;;;;;;5117947;28;20056;-83
2021/06/30 00:50:21;;;;;;;0.50;0.40;;;18.50;74.50;;;;;;5117849;27;20035;-83
2021/06/30 00:52:47;;;;;;;0.80;0.50;;;18.50;74.90;;;;;;5122693;27;20022;-83
2021/06/30 00:55:15;;;;;;;0.60;0.50;;;18.50;74.90;;;;;;5138430;27;20031;-83
2021/06/30 00:57:42;;;;;;;0.50;0.47;;;18.50;75.00;;;;;;5138539;27;20050;-83
2021/06/30 01:00:09;;;;;;;0.80;0.60;;;18.50;74.70;;;;;;5123624;27;20024;-83
2021/06/30 01:02:34;;;;;;;0.70;0.50;;;18.50;75.10;;;;;;5117807;28;20019;-83
2021/06/30 01:05:00;;;;;;;0.70;0.50;;;18.50;75.00;;;;;;5117476;28;20039;-83
2021/06/30 01:07:26;;;;;;;0.75;0.60;;;18.50;75.20;;;;;;5117824;28;20019;-83
2021/06/30 01:09:52;;;;;;;0.77;0.57;;;18.50;75.10;;;;;;5133322;27;20401;-83
2021/06/30 01:12:18;;;;;;;0.50;0.43;;;18.50;75.10;;;;;;5117386;27;20028;-83
2021/06/30 01:14:44;;;;;;;0.95;0.65;;;18.60;74.90;;;;;;5116059;28;20028;-83
2021/06/30 01:17:10;;;;;;;0.55;0.50;;;18.60;74.80;;;;;;5117700;28;20120;-83
2021/06/30 01:19:37;;;;;;;0.60;0.50;;;18.50;75.10;;;;;;5116088;28;20032;-83
2021/06/30 01:22:08;;;;;;;0.85;0.60;;;18.50;75.30;;;;;;5117181;27;20039;-83
2021/06/30 01:24:37;;;;;;;0.60;0.50;;;18.50;75.90;;;;;;5117176;28;20050;-83
2021/06/30 01:27:04;;;;;;;0.67;0.50;;;18.40;75.80;;;;;;5133115;27;20500;-83
2021/06/30 01:29:30;;;;;;;0.70;0.60;;;18.40;75.70;;;;;;5132572;27;20284;-83
2021/06/30 01:31:56;;;;;;;0.80;0.70;;;18.40;76.20;;;;;;5117453;28;20019;-82
2021/06/30 01:34:22;;;;;;;0.70;0.60;;;18.40;76.00;;;;;;5117322;27;20085;-83
2021/06/30 01:36:50;;;;;;;0.77;0.60;;;18.40;75.70;;;;;;5117126;28;20023;-83
2021/06/30 01:39:20;;;;;;;0.80;0.50;;;18.50;75.70;;;;;;5116905;28;20050;-83
2021/06/30 01:41:49;;;;;;;0.90;0.70;;;18.40;75.60;;;;;;5117241;28;20080;-83
2021/06/30 01:44:16;;;;;;;0.90;0.70;;;18.50;76.00;;;;;;5116948;28;20062;-83
2021/06/30 01:46:43;;;;;;;1.08;0.80;;;18.30;76.40;;;;;;5116906;28;20032;-83
2021/06/30 01:49:09;;;;;;;0.70;0.60;;;18.40;76.10;;;;;;5116535;28;20100;-83
2021/06/30 01:51:35;;;;;;;0.68;0.52;;;18.40;76.00;;;;;;5116880;28;20099;-83
2021/06/30 01:54:04;;;;;;;0.90;0.70;;;18.40;76.30;;;;;;5131307;27;20064;-83
2021/06/30 01:56:32;;;;;;;1.20;0.80;;;18.40;76.00;;;;;;5116718;28;20157;-83
2021/06/30 01:59:04;;;;;;;1.10;0.80;;;18.40;76.00;;;;;;5116901;28;20019;-83
2021/06/30 02:01:30;;;;;;;0.90;0.73;;;18.40;76.20;;;;;;5116429;28;20024;-83
2021/06/30 02:03:57;;;;;;;1.02;0.80;;;18.40;76.10;;;;;;5116725;28;20027;-83
2021/06/30 02:06:24;;;;;;;1.00;0.70;;;18.40;76.20;;;;;;5116568;28;20102;-83
2021/06/30 02:08:51;;;;;;;1.10;0.80;;;18.40;76.30;;;;;;5116366;28;20020;-83
2021/06/30 02:11:17;;;;;;;0.77;0.70;;;18.30;76.80;;;;;;5116297;28;20024;-83
2021/06/30 02:13:43;;;;;;;0.90;0.80;;;18.30;76.70;;;;;;5116594;28;20020;-83
2021/06/30 02:16:12;;;;;;;1.00;0.90;;;18.40;76.60;;;;;;5116002;28;20032;-83
2021/06/30 02:18:39;;;;;;;1.15;0.90;;;18.40;76.20;;;;;;5116348;28;20020;-83
2021/06/30 02:21:05;;;;;;;0.85;0.80;;;18.40;75.90;;;;;;5116147;28;20026;-83
2021/06/30 02:23:30;;;;;;;1.10;0.88;;;18.50;76.30;;;;;;5116317;28;20027;-83
2021/06/30 02:25:56;;;;;;;0.90;0.70;;;18.40;76.80;;;;;;5116018;27;20031;-83
2021/06/30 02:28:22;;;;;;;0.93;0.82;;;18.40;76.30;;;;;;5116250;28;20023;-83
2021/06/30 02:30:48;;;;;;;0.80;0.73;;;18.50;76.40;;;;;;5116083;28;20031;-83
2021/06/30 02:33:16;;;;;;;0.90;0.80;;;18.40;76.50;;;;;;5116303;27;20042;-83
2021/06/30 02:35:42;;;;;;;1.10;0.85;;;18.40;76.90;;;;;;5116094;28;20114;-83
2021/06/30 02:38:08;;;;;;;0.90;0.75;;;18.40;76.60;;;;;;5131869;27;20043;-83
2021/06/30 02:40:34;;;;;;;1.00;0.82;;;18.40;76.40;;;;;;5115738;28;20035;-83
2021/06/30 02:43:03;;;;;;;0.80;0.70;;;18.40;76.70;;;;;;5115956;28;20027;-83
2021/06/30 02:45:29;;;;;;;0.90;0.80;;;18.40;76.80;;;;;;5115940;28;20020;-83
2021/06/30 02:47:55;;;;;;;0.85;0.70;;;18.30;77.00;;;;;;5115778;28;20557;-83
2021/06/30 02:50:21;;;;;;;0.90;0.80;;;18.30;77.10;;;;;;5117042;28;20027;-83
2021/06/30 02:52:50;;;;;;;0.90;0.85;;;18.30;77.00;;;;;;5122215;28;20493;-83
2021/06/30 02:55:16;;;;;;;0.93;0.70;;;18.30;76.90;;;;;;5131122;27;20015;-83
2021/06/30 02:57:44;;;;;;;1.10;1.00;;;18.30;77.00;;;;;;5120729;27;20477;-83
2021/06/30 03:00:14;;;;;;;0.73;0.73;;;18.30;77.10;;;;;;5116650;28;20031;-83
2021/06/30 03:02:40;;;;;;;1.00;0.90;;;18.30;77.20;;;;;;5115834;28;20020;-83
2021/06/30 03:05:06;;;;;;;0.73;0.70;;;18.20;77.60;;;;;;5117498;28;20028;-83
2021/06/30 03:07:32;;;;;;;1.10;0.82;;;18.30;77.80;;;;;;5120157;28;20023;-83
2021/06/30 03:09:58;;;;;;;0.77;0.75;;;18.20;77.30;;;;;;5120942;27;20481;-83
2021/06/30 03:12:24;;;;;;;1.08;0.88;;;18.30;77.20;;;;;;5120690;27;20504;-83
2021/06/30 03:14:50;;;;;;;0.90;0.80;;;18.30;77.10;;;;;;5120501;28;20034;-83
2021/06/30 03:17:15;;;;;;;0.90;0.80;;;18.30;77.20;;;;;;5120296;28;20162;-83
2021/06/30 03:19:41;;;;;;;1.00;0.90;;;18.30;77.30;;;;;;5119608;27;20024;-83
2021/06/30 03:22:07;;;;;;;0.90;0.80;;;18.30;77.30;;;;;;5119800;28;20117;-83
2021/06/30 03:24:33;;;;;;;1.00;0.90;;;18.30;77.30;;;;;;5119738;28;20122;-83
2021/06/30 03:26:59;;;;;;;1.05;0.90;;;18.30;77.10;;;;;;5119525;27;20020;-83
2021/06/30 03:29:25;;;;;;;0.98;0.88;;;18.30;77.20;;;;;;5135213;27;20027;-83
2021/06/30 03:31:50;;;;;;;1.10;0.90;;;18.30;77.20;;;;;;5119422;28;20418;-83
2021/06/30 03:34:16;;;;;;;0.90;0.80;;;18.30;77.00;;;;;;5119734;28;20026;-83
2021/06/30 03:36:42;;;;;;;0.70;0.68;;;18.30;77.20;;;;;;5119319;28;20020;-83
2021/06/30 03:39:07;;;;;;;0.90;0.70;;;18.30;77.50;;;;;;5135560;27;20020;-83
2021/06/30 03:41:36;;;;;;;0.75;0.70;;;18.20;77.60;;;;;;5119433;28;20099;-83
2021/06/30 03:44:02;;;;;;;0.60;0.50;;;18.20;77.70;;;;;;5119297;28;20027;-83
2021/06/30 03:46:27;;;;;;;0.77;0.70;;;18.20;77.40;;;;;;5119140;28;20028;-83
2021/06/30 03:48:53;;;;;;;0.75;0.60;;;18.30;77.40;;;;;;5119115;28;20097;-83
2021/06/30 03:51:19;;;;;;;0.60;0.60;;;18.20;77.60;;;;;;5119165;28;20094;-83
2021/06/30 03:53:45;;;;;;;0.80;0.70;;;18.20;77.50;;;;;;5127073;27;20024;-83
2021/06/30 03:56:10;;;;;;;0.80;0.73;;;18.20;77.40;;;;;;5134864;27;20020;-83
2021/06/30 03:58:36;;;;;;;0.80;0.75;;;18.20;77.60;;;;;;5134914;27;20031;-83
2021/06/30 04:01:02;;;;;;;0.70;0.63;;;18.20;77.70;;;;;;5118746;27;20032;-83
2021/06/30 04:03:28;;;;;;;0.80;0.70;;;18.20;77.40;;;;;;5118997;28;20035;-83
2021/06/30 04:05:53;;;;;;;0.90;0.80;;;18.20;77.40;;;;;;5119267;28;20084;-83
2021/06/30 04:08:19;;;;;;;0.90;0.73;;;18.20;77.50;;;;;;5118493;27;20102;-83
2021/06/30 04:10:45;;;;;;;0.90;0.77;;;18.20;77.50;;;;;;5118787;28;20019;-84
2021/06/30 04:13:11;;;;;;;1.08;0.90;;;18.20;77.40;;;;;;5118757;28;20035;-83
2021/06/30 04:15:39;;;;;;;1.10;1.00;;;18.20;77.70;;;;;;5117026;28;20023;-83
2021/06/30 04:18:06;;;;;;;0.88;0.80;;;18.20;77.60;;;;;;5117990;28;20064;-83
2021/06/30 04:20:31;;;;;;;0.88;0.80;;;18.20;77.40;;;;;;5118703;28;20488;-83
2021/06/30 04:22:57;;;;;;;1.10;1.00;;;18.20;77.40;;;;;;5118315;27;20027;-83
2021/06/30 04:25:23;;;;;;;1.00;0.90;;;18.20;77.10;;;;;;5118361;27;20076;-82
2021/06/30 04:27:49;;;;;;;1.00;0.90;;;18.20;77.30;;;;;;5118435;28;20188;-83
2021/06/30 04:30:14;;;;;;;1.00;0.90;;;18.20;77.40;;;;;;5118055;27;20020;-83
2021/06/30 04:32:41;;;;;;;1.10;1.00;;;18.20;77.40;;;;;;5118304;28;20484;-83
2021/06/30 04:35:07;;;;;;;1.00;0.85;;;18.20;77.50;;;;;;5126285;27;20023;-83
2021/06/30 04:37:33;;;;;;;0.90;0.80;;;18.10;77.40;;;;;;5136427;27;20035;-83
2021/06/30 04:40:04;;;;;;;0.85;0.70;;;18.10;77.30;;;;;;5137895;27;20106;-83
2021/06/30 04:42:29;;;;;;;0.85;0.80;;;18.20;77.00;;;;;;5136396;27;20376;-82
2021/06/30 04:44:55;;;;;;;1.00;0.80;;;18.20;77.10;;;;;;5123084;27;20046;-83
2021/06/30 04:47:21;;;;;;;1.10;0.98;;;18.20;76.80;;;;;;5133062;27;20095;-83
2021/06/30 04:49:47;;;;;;;1.00;0.80;;;18.20;76.90;;;;;;5117101;28;20503;-83
2021/06/30 04:52:12;;;;;;;0.93;0.80;;;18.20;76.80;;;;;;5131127;27;20049;-83
2021/06/30 04:54:38;;;;;;;1.05;0.95;;;18.20;76.50;;;;;;5117695;27;20481;-83
2021/06/30 04:57:04;;;;;;;0.90;0.75;;;18.20;76.50;;;;;;5117038;28;20034;-80
2021/06/30 04:59:29;;;;;;;1.02;0.85;;;18.20;76.50;;;;;;5116585;28;20031;-84
2021/06/30 05:01:55;;;;;;;0.80;0.70;;;18.10;76.60;;;;;;5116626;27;20027;-82
2021/06/30 05:04:21;;;;;;;0.98;0.75;;;18.00;76.70;;;;;;5116854;28;20032;-81
2021/06/30 05:06:47;;;;;;;1.05;0.90;;;18.10;76.50;;;;;;5116548;28;20038;-82
2021/06/30 05:09:14;;;;;;;1.05;0.95;;;18.10;76.50;;;;;;5116507;28;20454;-82
2021/06/30 05:11:40;;;;;;;0.88;0.73;;;18.10;76.70;;;;;;5116906;28;20035;-83
2021/06/30 05:14:05;;;;;;;0.95;0.80;;;18.10;76.60;;;;;;5116358;28;20500;-85
2021/06/30 05:16:31;;;;;;;0.70;0.68;;;18.00;76.60;;;;;;5116595;28;20023;-86
2021/06/30 05:18:57;;;;;;;0.90;0.80;;;18.00;76.70;;;;;;5128450;27;20114;-83
2021/06/30 05:21:23;;;;;;;0.98;0.88;;;18.10;76.60;;;;;;5135271;27;20135;-81
2021/06/30 05:23:49;;;;;;;0.90;0.70;;;18.10;76.40;;;;;;5123177;27;20031;-79
2021/06/30 05:26:15;;;;;;;0.60;0.50;;;18.20;76.40;;;;;;5124265;27;20533;-82
2021/06/30 05:28:41;;;;;;;0.70;0.60;;;18.20;76.30;;;;;;5125754;27;20110;-80
2021/06/30 05:31:07;;;;;;;1.00;0.77;;;18.20;76.20;;;;;;5122733;27;20390;-83
2021/06/30 05:33:32;;;;;;;0.90;0.70;;;18.20;76.30;;;;;;5126724;27;21125;-86
2021/06/30 05:35:58;;;;;;;0.80;0.70;;;18.20;76.30;;;;;;5124054;27;20125;-85
2021/06/30 05:38:24;;;;;;;0.80;0.63;;;18.20;76.30;;;;;;5136938;27;20416;-84
2021/06/30 05:40:50;;;;;;;0.70;0.60;;;18.30;76.00;;;;;;5134417;27;20023;-86
2021/06/30 05:43:16;;;;;;;0.70;0.63;;;18.30;76.00;;;;;;5128959;27;20035;-83
2021/06/30 05:45:43;;;;;;;0.80;0.60;;;18.30;76.20;;;;;;5116521;27;20031;-83
2021/06/30 05:48:08;;;;;;;0.80;0.60;;;18.30;76.30;;;;;;5130344;27;20394;-81
2021/06/30 05:50:34;;;;;;;0.80;0.60;;;18.30;75.70;;;;;;5114392;28;20024;-84
2021/06/30 05:53:00;;;;;;;0.90;0.63;;;18.40;75.60;;;;;;5122774;27;20079;-85
2021/06/30 05:55:26;;;;;;;0.75;0.68;;;18.30;75.70;;;;;;5132792;27;20019;-85
2021/06/30 05:57:52;;;;;;;0.70;0.60;;;18.40;75.80;;;;;;5132641;27;20027;-81
2021/06/30 06:00:20;;;;;;;0.60;0.60;;;18.40;75.90;;;;;;5124502;27;20111;-82
2021/06/30 06:02:50;;;;;;;0.60;0.50;;;18.50;75.80;;;;;;5133187;27;20019;-83
2021/06/30 06:05:16;;;;;;;0.70;0.60;;;18.50;75.70;;;;;;5133538;27;20031;-83
2021/06/30 06:07:42;;;;;;;0.95;0.60;;;18.50;75.30;;;;;;5116083;28;20031;-83
2021/06/30 06:10:12;;;;;;;0.68;0.60;;;18.70;74.80;;;;;;5115580;28;20106;-83
2021/06/30 06:12:39;;;;;;;0.68;0.60;;;18.70;74.50;;;;;;5121380;27;20030;-83
2021/06/30 06:15:07;;;;;;;0.70;0.68;;;18.80;74.60;;;;;;5125622;27;20092;-83
2021/06/30 06:17:32;;;;;;;0.68;0.60;;;18.80;73.90;;;;;;5118669;27;20031;-82
2021/06/30 06:19:58;;;;;;;0.80;0.57;;;18.80;74.00;;;;;;5115725;28;20037;-82
2021/06/30 06:22:24;;;;;;;0.77;0.57;;;18.80;73.70;;;;;;5116004;28;20066;-83
2021/06/30 06:24:50;;;;;;;0.73;0.60;;;18.80;73.40;;;;;;5116085;28;20027;-82
2021/06/30 06:27:19;;;;;;;0.70;0.60;;;18.80;74.00;;;;;;5115566;27;20573;-82
2021/06/30 06:29:49;;;;;;;0.80;0.73;;;18.80;74.30;;;;;;5132219;27;20489;-82
2021/06/30 06:32:14;;;;;;;0.82;0.60;;;18.60;74.20;;;;;;5134903;27;20505;-82
2021/06/30 06:34:40;;;;;;;0.80;0.60;;;18.60;73.70;;;;;;5120367;27;20122;-83
2021/06/30 06:37:07;;;;;;;0.52;0.50;;;18.70;74.20;;;;;;5115323;27;20051;-83
2021/06/30 06:39:33;;;;;;;0.82;0.70;;;18.80;74.00;;;;;;5130652;27;20039;-83
2021/06/30 06:42:01;;;;;;;0.55;0.50;;;18.80;73.90;;;;;;5131479;27;20031;-83
2021/06/30 06:44:27;;;;;;;0.63;0.50;;;18.80;73.90;;;;;;5109666;28;20048;-84
2021/06/30 06:46:52;;;;;;;0.65;0.50;;;18.90;73.50;;;;;;5094998;28;20543;-83
2021/06/30 06:49:18;;;;;;;0.70;0.60;;;18.90;73.60;;;;;;5095107;28;20056;-84
2021/06/30 16:20:17;;;;;;;0.20;0.20;;;21.90;67.40;;;;;;5070880;28;20402;-76
2021/06/30 16:22:44;;;;;;;0.47;0.20;;;22.10;67.70;;;;;;5063868;28;20104;-78
2021/06/30 16:25:11;;;;;;;0.30;0.20;;;22.30;67.10;;;;;;5059311;28;20029;-78
2021/06/30 16:27:36;;;;;;;0.30;0.20;;;22.60;66.00;;;;;;5040948;28;20033;-84
2021/06/30 16:30:05;;;;;;;0.20;0.20;;;22.80;64.90;;;;;;5033173;28;20030;-78
2021/06/30 16:32:31;;;;;;;0.40;0.22;;;22.90;63.60;;;;;;5060530;28;20533;-78
2021/06/30 16:34:56;;;;;;;0.22;0.20;;;23.10;64.20;;;;;;5053458;28;20029;-78
2021/06/30 16:37:22;;;;;;;0.20;0.20;;;23.10;64.00;;;;;;5058688;28;20073;-78
2021/06/30 16:39:48;;;;;;;0.30;0.20;;;23.20;63.20;;;;;;5070916;28;20035;-78
2021/06/30 16:42:14;;;;;;;0.40;0.20;;;23.30;63.30;;;;;;5060631;28;20027;-79
2021/06/30 16:44:40;;;;;;;0.32;0.20;;;23.30;62.50;;;;;;5050229;28;20036;-79
2021/06/30 16:47:05;;;;;;;0.20;0.20;;;23.30;63.00;;;;;;5067408;28;20109;-78
2021/06/30 16:49:31;;;;;;;0.20;0.20;;;23.20;62.70;;;;;;5060380;28;20028;-83
2021/06/30 16:51:57;;;;;;;0.15;0.15;;;23.10;61.90;;;;;;5051298;28;20774;-80
2021/06/30 16:54:22;;;;;;;0.40;0.28;;;23.10;61.80;;;;;;5067428;28;20486;-80
2021/06/30 16:56:48;;;;;;;0.32;0.20;;;23.10;62.80;;;;;;5053999;28;20446;-79
2021/06/30 16:59:15;;;;;;;0.20;0.20;;;23.10;61.10;;;;;;5049256;28;20025;-79
2021/06/30 17:01:40;;;;;;;0.20;0.20;;;23.00;61.10;;;;;;5048635;28;20090;-79
2021/06/30 17:04:06;;;;;;;0.40;0.30;;;22.90;62.60;;;;;;5050027;28;20033;-79
2021/06/30 17:06:34;;;;;;;0.30;0.20;;;23.00;62.50;;;;;;5042573;28;20510;-80
2021/06/30 17:09:00;;;;;;;0.30;0.20;;;22.90;62.70;;;;;;5058816;28;20071;-79
2021/06/30 17:11:26;;;;;;;0.20;0.20;;;23.00;63.60;;;;;;5050078;28;20024;-80
2021/06/30 17:13:52;;;;;;;0.40;0.25;;;22.90;63.60;;;;;;5048740;28;20033;-80
2021/06/30 17:16:19;;;;;;;0.28;0.20;;;22.90;63.60;;;;;;5047641;28;20092;-80
2021/06/30 17:18:45;;;;;;;0.30;0.20;;;23.00;63.30;;;;;;5051268;28;20059;-79
2021/06/30 17:21:12;;;;;;;0.20;0.20;;;22.90;63.10;;;;;;5050256;28;20021;-88
2021/06/30 17:23:38;;;;;;;0.30;0.20;;;22.90;63.10;;;;;;5048495;28;20102;-79
2021/06/30 17:26:04;;;;;;;0.20;0.20;;;23.00;62.80;;;;;;5047550;28;20066;-82
2021/06/30 17:28:30;;;;;;;0.20;0.20;;;22.90;62.90;;;;;;5052830;28;20029;-78
2021/06/30 17:30:56;;;;;;;0.17;0.13;;;22.80;64.50;;;;;;5030038;28;20029;-82
2021/06/30 17:33:22;;;;;;;0.28;0.20;;;22.90;63.70;;;;;;5016239;28;20030;-78
2021/06/30 17:35:50;;;;;;;0.30;0.17;;;22.80;63.60;;;;;;5017574;28;20101;-78
2021/06/30 17:38:17;;;;;;;0.50;0.20;;;22.80;64.20;;;;;;5016255;28;20034;-80
2021/06/30 17:40:43;;;;;;;0.20;0.20;;;22.80;64.60;;;;;;5017086;28;20573;-82
2021/06/30 17:43:10;;;;;;;0.40;0.30;;;22.80;64.70;;;;;;5024324;28;20140;-79
2021/06/30 17:45:35;;;;;;;0.20;0.20;;;22.80;63.70;;;;;;5035996;28;20057;-79
2021/06/30 17:48:03;;;;;;;0.20;0.20;;;22.80;63.20;;;;;;5035578;28;20832;-81
2021/06/30 17:50:33;;;;;;;0.10;0.10;;;22.80;64.00;;;;;;5032283;28;20022;-80
2021/06/30 17:52:59;;;;;;;;;;;22.70;63.10;;;;;;5029882;28;20048;-78
2021/06/30 17:55:25;;;;;;;0.40;0.20;;;22.50;63.10;;;;;;5046517;28;19971;-79
2021/06/30 17:57:51;;;;;;;0.10;0.10;;;22.40;63.90;;;;;;5043217;28;20021;-81
2021/06/30 18:00:17;;;;;;;0.40;0.20;;;22.40;64.20;;;;;;5041368;28;20077;-80
2021/06/30 18:02:43;;;;;;;0.30;0.20;;;22.40;64.40;;;;;;5041948;28;20535;-78
2021/06/30 18:05:12;;;;;;;0.20;0.20;;;22.40;63.40;;;;;;5033266;28;20411;-79
2021/06/30 18:07:38;;;;;;;0.20;0.20;;;22.30;63.50;;;;;;5042590;28;20028;-79
2021/06/30 18:10:04;;;;;;;0.20;0.10;;;22.30;64.80;;;;;;5036368;28;20037;-79
2021/06/30 18:12:30;;;;;;;0.30;0.20;;;22.20;66.00;;;;;;5046535;28;20024;-80
2021/06/30 18:14:56;;;;;;;0.30;0.20;;;22.10;65.90;;;;;;5037375;28;20017;-80
2021/06/30 18:17:22;;;;;;;0.30;0.20;;;22.00;65.90;;;;;;5044056;28;20477;-81
2021/06/30 18:19:48;;;;;;;0.50;0.20;;;21.90;66.10;;;;;;5044556;28;20419;-80
2021/06/30 18:22:14;;;;;;;0.30;0.20;;;21.90;66.60;;;;;;5031079;28;20037;-81
2021/06/30 18:24:40;;;;;;;0.35;0.20;;;21.80;67.00;;;;;;5032674;28;20037;-80
2021/06/30 18:27:05;;;;;;;0.20;0.20;;;21.80;66.90;;;;;;5041462;28;20025;-80
2021/06/30 18:29:31;;;;;;;0.28;0.20;;;21.70;67.80;;;;;;5036606;28;20416;-80
2021/06/30 18:31:57;;;;;;;0.30;0.20;;;21.70;67.60;;;;;;5046522;28;20029;-81
2021/06/30 18:34:23;;;;;;;0.20;0.15;;;21.60;68.10;;;;;;5043549;28;20032;-80
2021/06/30 18:36:48;;;;;;;0.30;0.20;;;21.50;68.10;;;;;;5046157;28;20025;-80
2021/06/30 18:39:14;;;;;;;0.55;0.30;;;21.40;68.50;;;;;;5042731;28;20026;-80
2021/06/30 18:41:40;;;;;;;0.40;0.20;;;21.40;68.50;;;;;;5026825;28;20494;-81
2021/06/30 18:44:06;;;;;;;0.40;0.30;;;21.30;68.90;;;;;;5031338;28;20033;-81
2021/06/30 18:46:32;;;;;;;0.30;0.30;;;21.30;68.30;;;;;;5035121;28;20091;-81
2021/06/30 18:48:58;;;;;;;0.50;0.40;;;21.30;68.60;;;;;;5024079;28;20037;-81
2021/06/30 18:51:24;;;;;;;0.52;0.20;;;21.30;69.60;;;;;;5016487;28;20476;-81
2021/06/30 18:53:50;;;;;;;0.65;0.30;;;21.20;68.40;;;;;;5035415;28;20488;-81
2021/06/30 18:56:15;;;;;;;0.30;0.20;;;21.20;69.10;;;;;;5036481;28;20434;-81
2021/06/30 18:58:41;;;;;;;0.35;0.20;;;21.10;69.10;;;;;;5032273;28;20416;-81
2021/06/30 19:01:08;;;;;;;0.30;0.20;;;21.10;69.60;;;;;;5043012;28;20478;-81
2021/06/30 19:03:34;;;;;;;0.30;0.20;;;21.00;69.50;;;;;;5036439;28;20025;-81
2021/06/30 19:06:02;;;;;;;0.20;0.20;;;21.00;69.70;;;;;;5036385;28;20388;-81
2021/06/30 19:08:29;;;;;;;0.20;0.20;;;20.90;70.20;;;;;;5024615;28;20105;-81
2021/06/30 19:10:56;;;;;;;0.35;0.20;;;20.90;70.50;;;;;;5016238;28;20032;-81
2021/06/30 19:13:23;;;;;;;0.35;0.20;;;20.80;70.20;;;;;;5012219;28;20116;-81
2021/06/30 19:15:51;;;;;;;0.60;0.30;;;20.80;70.80;;;;;;5034523;28;20085;-85
2021/06/30 19:18:17;;;;;;;0.30;0.20;;;20.70;71.10;;;;;;5035590;28;20042;-80
2021/06/30 19:20:43;;;;;;;0.60;0.30;;;20.60;71.60;;;;;;5023444;28;20055;-82
2021/06/30 19:23:10;;;;;;;0.25;0.20;;;20.50;71.40;;;;;;5024277;28;20485;-86
2021/06/30 19:25:37;;;;;;;0.28;0.20;;;20.50;71.60;;;;;;5025734;28;20055;-86
2021/06/30 19:28:03;;;;;;;0.30;0.20;;;20.40;72.20;;;;;;5029837;28;20483;-90
2021/06/30 19:30:30;;;;;;;0.30;0.20;;;20.40;72.10;;;;;;5030689;28;20546;-86
2021/06/30 19:33:01;;;;;;;0.30;0.20;;;20.30;72.10;;;;;;5030606;28;20093;-86
2021/06/30 19:35:28;;;;;;;0.30;0.20;;;20.30;72.20;;;;;;5036086;28;20109;-86
2021/06/30 19:37:53;;;;;;;0.30;0.20;;;20.30;72.30;;;;;;5029269;28;20460;-87
2021/06/30 19:40:19;;;;;;;0.30;0.20;;;20.20;72.60;;;;;;5034789;28;20063;-85
2021/06/30 19:42:45;;;;;;;0.20;0.20;;;20.20;72.60;;;;;;5034497;28;20029;-85
2021/06/30 19:45:11;;;;;;;0.20;0.20;;;20.10;72.70;;;;;;5029684;28;20054;-89
2021/06/30 19:47:39;;;;;;;0.50;0.30;;;20.10;72.70;;;;;;5040533;28;20414;-81
2021/06/30 19:50:11;;;;;;;0.55;0.30;;;20.00;73.40;;;;;;5035339;28;20495;-90
2021/06/30 19:55:05;;;;;;;0.50;0.30;;;19.90;73.30;;;;;;5019537;28;20048;-86
2021/06/30 19:57:31;;;;;;;0.90;0.25;;;19.80;73.50;;;;;;5022660;28;20091;-85
2021/06/30 19:59:57;;;;;;;0.35;0.30;;;19.80;73.30;;;;;;5045568;28;20021;-84
2021/06/30 20:02:25;;;;;;;0.40;0.30;;;19.80;73.70;;;;;;5039955;28;20036;-94
2021/06/30 20:04:51;;;;;;;0.25;0.20;;;19.70;73.90;;;;;;5027355;28;20030;-90
2021/06/30 20:07:16;;;;;;;0.40;0.30;;;19.70;73.90;;;;;;5033941;28;20026;-82
2021/06/30 20:09:42;;;;;;;0.30;0.30;;;19.60;74.00;;;;;;5029866;28;20136;-83
2021/06/30 20:12:08;;;;;;;0.28;0.20;;;19.60;74.20;;;;;;5031426;28;20056;-89
2021/06/30 20:14:35;;;;;;;0.45;0.30;;;19.60;74.10;;;;;;5046223;28;20075;-85
2021/06/30 20:17:01;;;;;;;0.30;0.25;;;19.50;74.60;;;;;;5035094;28;20025;-86
2021/06/30 20:19:27;;;;;;;0.30;0.30;;;19.30;74.60;;;;;;5034684;28;20525;-80
2021/06/30 20:21:53;;;;;;;0.40;0.32;;;19.40;74.40;;;;;;5030765;28;20032;-80
2021/06/30 20:24:19;;;;;;;0.40;0.30;;;19.30;74.60;;;;;;5059186;28;20038;-83
2021/06/30 20:26:44;;;;;;;0.40;0.30;;;19.30;74.50;;;;;;5032804;28;20025;-83
2021/06/30 20:29:10;;;;;;;0.30;0.28;;;19.30;74.40;;;;;;5042040;28;20884;-82
2021/06/30 20:31:37;;;;;;;0.40;0.30;;;19.20;74.60;;;;;;5025093;28;20029;-81
2021/06/30 20:34:03;;;;;;;0.40;0.30;;;19.20;74.90;;;;;;5020073;28;20381;-81
2021/06/30 20:36:29;;;;;;;0.43;0.30;;;19.10;75.00;;;;;;5026342;28;20035;-80
2021/06/30 20:38:55;;;;;;;0.50;0.35;;;19.00;75.00;;;;;;5018925;28;20049;-82
2021/06/30 20:41:21;;;;;;;0.68;0.50;;;19.00;74.90;;;;;;5018579;28;20030;-80
2021/06/30 20:43:47;;;;;;;0.40;0.30;;;19.00;75.30;;;;;;5023013;28;20029;-81
2021/06/30 20:46:14;;;;;;;0.73;0.40;;;18.90;75.50;;;;;;5021891;28;20025;-82
2021/06/30 20:48:40;;;;;;;0.82;0.50;;;18.90;75.50;;;;;;5021726;28;20034;-80
2021/06/30 20:51:07;;;;;;;0.50;0.40;;;18.90;75.30;;;;;;5027191;28;20037;-81
2021/06/30 20:53:33;;;;;;;0.60;0.45;;;18.90;75.50;;;;;;5032810;28;20026;-81
2021/06/30 20:56:00;;;;;;;0.40;0.35;;;18.80;75.90;;;;;;5029850;28;20120;-81
2021/06/30 20:58:26;;;;;;;0.60;0.40;;;18.80;75.80;;;;;;5032535;28;20060;-81
2021/06/30 21:00:53;;;;;;;0.43;0.38;;;18.80;75.80;;;;;;5030982;28;20037;-80
2021/06/30 21:03:19;;;;;;;0.43;0.38;;;18.80;75.80;;;;;;5017771;28;20036;-80
2021/06/30 21:05:45;;;;;;;0.52;0.40;;;18.80;75.70;;;;;;5029148;28;20053;-81
2021/06/30 21:08:10;;;;;;;0.50;0.40;;;18.70;75.90;;;;;;5031389;28;20068;-80
2021/06/30 21:10:37;;;;;;;0.40;0.40;;;18.60;76.50;;;;;;5038111;28;20036;-81
2021/06/30 21:13:04;;;;;;;0.57;0.40;;;18.50;76.40;;;;;;5037355;28;20476;-81
2021/06/30 21:15:30;;;;;;;0.40;0.40;;;18.40;76.80;;;;;;5034190;28;20022;-81
2021/06/30 21:17:56;;;;;;;0.52;0.40;;;18.50;76.60;;;;;;5018082;28;20022;-80
2021/06/30 21:20:23;;;;;;;0.50;0.40;;;18.50;76.20;;;;;;5016732;28;20073;-81
2021/06/30 21:22:57;;;;;;;0.50;0.40;;;18.50;76.10;;;;;;5029206;28;20479;-80
2021/06/30 21:25:23;;;;;;;0.40;0.30;;;18.40;76.30;;;;;;5038028;28;20036;-80
2021/06/30 21:27:49;;;;;;;0.20;0.20;;;18.30;76.60;;;;;;5032415;28;20030;-80
2021/06/30 21:30:15;;;;;;;0.50;0.30;;;18.30;76.40;;;;;;5018193;28;20053;-80
2021/06/30 21:32:41;;;;;;;0.30;0.30;;;18.30;76.40;;;;;;5036467;28;20021;-80
2021/06/30 21:35:07;;;;;;;0.40;0.30;;;18.30;77.00;;;;;;5019757;28;20117;-80
2021/06/30 21:37:33;;;;;;;0.40;0.30;;;18.20;77.20;;;;;;5018193;28;20033;-80
2021/06/30 21:40:13;;;;;;;;;;;;;;;;;;;;;
2021/06/30 21:42:39;;;;;;;0.57;0.28;;;18.30;76.60;;;;;;5037847;28;20019;-80
2021/06/30 21:45:05;;;;;;;0.55;0.40;;;18.30;76.40;;;;;;5032981;28;20084;-80
2021/06/30 21:47:31;;;;;;;0.40;0.32;;;18.30;76.50;;;;;;5017996;28;20022;-80
2021/06/30 21:49:57;;;;;;;0.50;0.40;;;18.20;76.30;;;;;;5017867;28;20040;-80
2021/06/30 21:52:22;;;;;;;0.30;0.30;;;18.20;76.40;;;;;;5020275;28;20673;-80
2021/06/30 21:54:48;;;;;;;0.30;0.30;;;18.20;76.30;;;;;;5039119;28;20033;-80
2021/06/30 21:57:14;;;;;;;0.32;0.30;;;18.10;76.30;;;;;;5017624;28;20558;-79
2021/06/30 21:59:39;;;;;;;0.70;0.50;;;18.00;76.60;;;;;;5017725;28;20492;-80
2021/06/30 22:02:05;;;;;;;0.88;0.40;;;18.00;76.50;;;;;;5017650;28;20033;-79
2021/06/30 22:04:32;;;;;;;0.50;0.40;;;18.10;76.30;;;;;;5017725;28;20032;-80
2021/06/30 22:06:59;;;;;;;0.75;0.43;;;18.00;76.20;;;;;;5017732;28;20567;-80
2021/06/30 22:09:25;;;;;;;0.47;0.40;;;18.00;76.10;;;;;;5017510;28;20034;-79
2021/06/30 22:11:51;;;;;;;0.60;0.40;;;18.00;76.20;;;;;;5032318;28;20021;-80
2021/06/30 22:14:19;;;;;;;0.50;0.40;;;18.00;76.10;;;;;;5030873;28;20388;-79